createdAt,value
2023-04-01T00:00:16.760Z,0.00
2023-04-01T00:00:47.369Z,0.00
2023-04-01T00:01:19.609Z,0.00
2023-04-01T00:01:51.543Z,0.00
2023-04-01T00:02:23.507Z,0.00
2023-04-01T00:02:56.506Z,0.00
2023-04-01T00:03:27.818Z,0.00
2023-04-01T00:04:00.543Z,0.00
2023-04-01T00:04:31.597Z,0.00
2023-04-01T00:05:05.009Z,0.00
2023-04-01T00:05:35.615Z,0.00
2023-04-01T00:06:08.462Z,0.00
2023-04-01T00:06:39.574Z,0.00
2023-04-01T00:07:12.445Z,0.00
2023-04-01T00:07:43.588Z,0.00
2023-04-01T00:08:16.954Z,0.00
2023-04-01T00:08:47.453Z,0.00
2023-04-01T00:09:20.138Z,0.00
2023-04-01T00:09:51.595Z,0.00
2023-04-01T00:10:24.542Z,0.00
2023-04-01T00:10:55.508Z,0.00
2023-04-01T00:11:28.381Z,0.00
2023-04-01T00:11:59.426Z,0.00
2023-04-01T00:12:32.463Z,0.00
2023-04-01T00:13:03.552Z,0.00
2023-04-01T00:13:36.038Z,0.00
2023-04-01T00:14:07.353Z,0.00
2023-04-01T00:14:40.236Z,0.00
2023-04-01T00:15:12.459Z,0.00
2023-04-01T00:15:44.474Z,0.00
2023-04-01T00:16:21.588Z,0.00
2023-04-01T00:16:48.357Z,0.00
2023-04-01T00:17:19.490Z,0.00
2023-04-01T00:17:52.344Z,0.00
2023-04-01T00:18:23.437Z,0.00
2023-04-01T00:18:56.639Z,0.00
2023-04-01T00:19:27.420Z,0.00
2023-04-01T00:20:00.571Z,0.00
2023-04-01T00:20:31.604Z,0.00
2023-04-01T00:21:04.288Z,0.00
2023-04-01T00:21:35.473Z,0.00
2023-04-01T00:22:09.287Z,0.00
2023-04-01T00:22:39.599Z,0.00
2023-04-01T00:23:12.281Z,0.00
2023-04-01T00:23:43.476Z,0.00
2023-04-01T00:24:16.394Z,0.00
2023-04-01T00:24:47.396Z,0.00
2023-04-01T00:25:20.401Z,0.00
2023-04-01T00:25:51.505Z,0.00
2023-04-01T00:26:24.383Z,0.00
2023-04-01T00:26:55.417Z,0.00
2023-04-01T00:27:28.521Z,0.00
2023-04-01T00:27:59.597Z,0.00
2023-04-01T00:28:32.341Z,0.00
2023-04-01T00:29:03.450Z,0.00
2023-04-01T01:02:55.464Z,0.00
2023-04-01T01:03:27.631Z,0.00
2023-04-01T01:03:59.605Z,0.00
2023-04-01T01:04:31.472Z,0.00
2023-04-01T01:05:04.555Z,0.00
2023-04-01T01:05:48.113Z,0.00
2023-04-01T01:06:09.138Z,0.00
2023-04-01T01:06:39.501Z,0.00
2023-04-01T01:07:12.421Z,0.00
2023-04-01T01:07:43.620Z,0.00
2023-04-01T01:08:16.355Z,0.00
2023-04-01T01:08:47.500Z,0.00
2023-04-01T01:09:20.525Z,0.00
2023-04-01T01:09:51.698Z,0.00
2023-04-01T01:10:24.560Z,0.00
2023-04-01T01:10:55.540Z,0.00
2023-04-01T01:11:59.530Z,0.00
2023-04-01T01:12:32.510Z,0.00
2023-04-01T01:13:03.475Z,0.00
2023-04-01T01:13:36.638Z,0.00
2023-04-01T01:14:07.573Z,0.00
2023-04-01T01:14:40.310Z,0.00
2023-04-01T01:15:12.456Z,0.00
2023-04-01T01:15:44.458Z,0.00
2023-04-01T01:16:15.663Z,0.00
2023-04-01T01:16:48.553Z,0.00
2023-04-01T01:17:19.781Z,0.00
2023-04-01T01:17:52.477Z,0.00
2023-04-01T01:18:23.526Z,0.00
2023-04-01T01:18:56.367Z,0.00
2023-04-01T01:19:27.412Z,0.00
2023-04-01T01:20:01.554Z,0.00
2023-04-01T01:20:31.626Z,0.00
2023-04-01T01:21:04.581Z,0.00
2023-04-01T01:21:35.560Z,0.00
2023-04-01T01:22:08.409Z,0.00
2023-04-01T01:22:39.618Z,0.00
2023-04-01T01:23:12.335Z,0.00
2023-04-01T01:23:43.518Z,0.00
2023-04-01T01:24:18.262Z,0.00
2023-04-01T01:24:47.596Z,0.00
2023-04-01T01:25:20.753Z,0.00
2023-04-01T01:25:51.591Z,0.00
2023-04-01T01:26:24.595Z,0.00
2023-04-01T01:26:55.498Z,0.00
2023-04-01T01:27:28.392Z,0.00
2023-04-01T01:27:59.581Z,0.00
2023-04-01T01:28:32.580Z,0.00
2023-04-01T01:29:03.407Z,0.00
2023-04-01T01:29:36.619Z,0.00
2023-04-01T01:30:08.637Z,0.00
2023-04-01T01:30:40.615Z,0.00
2023-04-01T01:31:11.580Z,0.00
2023-04-01T01:31:44.541Z,0.00
2023-04-01T01:32:15.553Z,0.00
2023-04-01T01:32:48.637Z,0.00
2023-04-01T01:33:19.623Z,0.00
2023-04-01T01:33:52.520Z,0.00
2023-04-01T01:34:23.469Z,0.00
2023-04-01T01:34:56.478Z,0.00
2023-04-01T01:35:27.935Z,0.00
2023-04-01T01:36:00.530Z,0.00
2023-04-01T01:36:31.663Z,0.00
2023-04-01T01:36:47.699Z,0.00
2023-04-01T01:37:19.538Z,0.00
2023-04-01T01:37:51.609Z,0.00
2023-04-01T01:38:23.677Z,0.00
2023-04-01T01:38:55.578Z,0.00
2023-04-01T01:39:28.302Z,0.00
2023-04-01T01:39:59.611Z,0.00
2023-04-01T01:40:32.920Z,0.00
2023-04-01T01:41:03.490Z,0.00
2023-04-01T01:41:36.321Z,0.00
2023-04-01T01:42:07.616Z,0.00
2023-04-01T01:42:40.369Z,0.00
2023-04-01T01:43:11.587Z,0.00
2023-04-01T01:43:44.509Z,0.00
2023-04-01T01:44:15.786Z,0.00
2023-04-01T01:44:48.302Z,0.00
2023-04-01T01:45:20.500Z,0.00
2023-04-01T01:45:52.772Z,0.00
2023-04-01T01:46:23.631Z,0.00
2023-04-01T01:46:56.313Z,0.00
2023-04-01T01:47:27.896Z,0.00
2023-04-01T01:48:00.693Z,0.00
2023-04-01T01:48:31.585Z,0.00
2023-04-01T01:48:47.690Z,0.00
2023-04-01T01:49:19.447Z,0.00
2023-04-01T01:49:51.630Z,0.00
2023-04-01T01:50:23.943Z,0.00
2023-04-01T01:50:55.546Z,0.00
2023-04-01T01:51:28.233Z,0.00
2023-04-01T01:51:59.698Z,0.00
2023-04-01T01:52:32.577Z,0.00
2023-04-01T01:53:03.572Z,0.00
2023-04-01T01:53:37.261Z,0.00
2023-04-01T01:54:07.567Z,0.00
2023-04-01T01:54:40.317Z,0.00
2023-04-01T01:55:11.955Z,0.00
2023-04-01T01:55:45.187Z,0.00
2023-04-01T01:56:15.655Z,0.00
2023-04-01T01:56:48.332Z,0.00
2023-04-01T01:57:19.622Z,0.00
2023-04-01T01:57:52.458Z,0.00
2023-04-01T01:58:23.517Z,0.00
2023-04-01T01:58:56.371Z,0.00
2023-04-01T01:59:27.633Z,0.00
2023-04-01T02:00:02.022Z,0.00
2023-04-01T02:00:31.844Z,0.00
2023-04-01T02:01:04.503Z,0.00
2023-04-01T02:01:35.563Z,0.00
2023-04-01T02:02:08.435Z,0.00
2023-04-01T02:02:39.722Z,0.00
2023-04-01T02:03:12.540Z,0.00
2023-04-01T02:03:43.495Z,0.00
2023-04-01T02:04:16.491Z,0.00
2023-04-01T02:04:47.631Z,0.00
2023-04-01T02:05:21.454Z,0.00
2023-04-01T02:05:51.569Z,0.00
2023-04-01T02:06:24.553Z,0.00
2023-04-01T02:06:55.677Z,0.00
2023-04-01T02:07:30.087Z,0.00
2023-04-01T02:07:59.559Z,0.00
2023-04-01T02:08:32.318Z,0.00
2023-04-01T02:09:03.792Z,0.00
2023-04-01T02:09:36.409Z,0.00
2023-04-01T02:10:07.863Z,0.00
2023-04-01T02:10:40.440Z,0.00
2023-04-01T02:11:11.493Z,0.00
2023-04-01T02:11:44.412Z,0.00
2023-04-01T02:12:15.713Z,0.00
2023-04-01T02:12:48.475Z,0.00
2023-04-01T02:13:19.712Z,0.00
2023-04-01T02:13:52.487Z,0.00
2023-04-01T02:14:23.781Z,0.00
2023-04-01T02:14:56.526Z,0.00
2023-04-01T02:15:28.790Z,0.00
2023-04-01T02:16:00.652Z,0.00
2023-04-01T02:16:31.920Z,0.00
2023-04-01T02:17:04.530Z,0.00
2023-04-01T02:17:35.674Z,0.00
2023-04-01T02:18:08.560Z,0.00
2023-04-01T02:18:39.612Z,0.00
2023-04-01T02:19:12.278Z,0.00
2023-04-01T02:19:43.574Z,0.00
2023-04-01T02:20:16.651Z,0.00
2023-04-01T02:20:47.587Z,0.00
2023-04-01T02:21:20.438Z,0.00
2023-04-01T02:21:51.595Z,0.00
2023-04-01T02:22:24.483Z,0.00
2023-04-01T02:22:55.498Z,0.00
2023-04-01T02:23:28.453Z,0.00
2023-04-01T02:23:59.874Z,0.00
2023-04-01T02:24:32.315Z,0.00
2023-04-01T02:25:03.841Z,0.00
2023-04-01T02:25:36.681Z,0.00
2023-04-01T02:26:07.410Z,0.00
2023-04-01T02:26:40.398Z,0.00
2023-04-01T02:27:11.663Z,0.00
2023-04-01T02:27:44.601Z,0.00
2023-04-01T02:28:15.467Z,0.00
2023-04-01T02:28:49.297Z,0.00
2023-04-01T02:29:19.732Z,0.00
2023-04-01T02:29:52.320Z,0.00
2023-04-01T02:30:24.664Z,0.00
2023-04-01T02:30:56.589Z,0.00
2023-04-01T02:31:27.517Z,0.00
2023-04-01T02:32:00.361Z,0.00
2023-04-01T02:32:31.630Z,0.00
2023-04-01T02:33:04.531Z,0.00
2023-04-01T02:33:35.572Z,0.00
2023-04-01T02:34:08.301Z,0.00
2023-04-01T02:34:39.626Z,0.00
2023-04-01T02:35:12.626Z,0.00
2023-04-01T02:35:43.597Z,0.00
2023-04-01T02:36:17.349Z,0.00
2023-04-01T02:36:47.650Z,0.00
2023-04-01T02:37:20.484Z,0.00
2023-04-01T02:37:51.616Z,0.00
2023-04-01T02:38:24.664Z,0.00
2023-04-01T02:38:55.805Z,0.00
2023-04-01T02:39:29.310Z,0.00
2023-04-01T02:39:59.680Z,0.00
2023-04-01T02:40:32.779Z,0.00
2023-04-01T02:41:03.582Z,0.00
2023-04-01T02:41:36.486Z,0.00
2023-04-01T02:42:07.813Z,0.00
2023-04-01T02:42:41.298Z,0.00
2023-04-01T02:43:11.731Z,0.00
2023-04-01T02:43:44.519Z,0.00
2023-04-01T02:44:15.879Z,0.00
2023-04-01T02:44:48.494Z,0.00
2023-04-01T02:45:20.428Z,0.00
2023-04-01T02:45:52.773Z,0.00
2023-04-01T02:46:23.670Z,0.00
2023-04-01T02:46:56.502Z,0.00
2023-04-01T02:47:27.788Z,0.00
2023-04-01T02:48:00.478Z,0.00
2023-04-01T02:48:31.676Z,0.00
2023-04-01T02:49:04.414Z,0.00
2023-04-01T02:49:35.633Z,0.00
2023-04-01T02:50:08.461Z,0.00
2023-04-01T02:50:39.537Z,0.00
2023-04-01T02:51:12.442Z,0.00
2023-04-01T02:51:43.521Z,0.00
2023-04-01T02:52:16.396Z,0.00
2023-04-01T02:52:47.611Z,0.00
2023-04-01T02:53:20.392Z,0.00
2023-04-01T02:53:51.485Z,0.00
2023-04-01T02:54:24.377Z,0.00
2023-04-01T02:54:55.638Z,0.00
2023-04-01T02:55:28.711Z,0.00
2023-04-01T02:55:59.586Z,0.00
2023-04-01T02:56:32.559Z,0.00
2023-04-01T02:57:03.678Z,0.00
2023-04-01T02:57:36.420Z,0.00
2023-04-01T02:58:07.506Z,0.00
2023-04-01T02:58:40.521Z,0.00
2023-04-01T02:59:11.605Z,0.00
2023-04-01T02:59:45.425Z,0.00
2023-04-01T03:00:16.884Z,0.00
2023-04-01T03:00:48.676Z,0.00
2023-04-01T03:01:19.615Z,0.00
2023-04-01T03:01:52.471Z,0.00
2023-04-01T03:02:23.643Z,0.00
2023-04-01T03:02:56.687Z,0.00
2023-04-01T03:03:27.601Z,0.00
2023-04-01T03:04:00.427Z,0.00
2023-04-01T03:04:31.804Z,0.00
2023-04-01T03:05:04.644Z,0.00
2023-04-01T03:05:35.740Z,0.00
2023-04-01T03:06:08.183Z,0.00
2023-04-01T03:06:39.492Z,0.00
2023-04-01T03:16:48.320Z,0.00
2023-04-01T03:17:19.543Z,0.00
2023-04-01T03:17:52.474Z,0.00
2023-04-01T03:18:23.699Z,0.00
2023-04-01T03:18:56.542Z,0.00
2023-04-01T03:19:27.668Z,0.00
2023-04-01T03:20:00.871Z,0.00
2023-04-01T03:20:31.781Z,0.00
2023-04-01T03:21:04.418Z,0.00
2023-04-01T03:21:35.597Z,0.00
2023-04-01T03:22:08.369Z,0.00
2023-04-01T03:22:42.196Z,0.00
2023-04-01T03:23:12.342Z,0.00
2023-04-01T03:23:43.690Z,0.00
2023-04-01T03:24:16.363Z,0.00
2023-04-01T03:24:47.688Z,0.00
2023-04-01T03:25:20.907Z,0.00
2023-04-01T03:25:51.627Z,0.00
2023-04-01T03:26:24.354Z,0.00
2023-04-01T03:26:55.667Z,0.00
2023-04-01T03:27:28.594Z,0.00
2023-04-01T03:27:59.491Z,0.00
2023-04-01T03:28:32.410Z,0.00
2023-04-01T03:29:03.544Z,0.00
2023-04-01T03:29:36.290Z,0.00
2023-04-01T03:30:08.642Z,0.00
2023-04-01T03:30:40.510Z,0.00
2023-04-01T03:31:11.895Z,0.00
2023-04-01T03:31:44.389Z,0.00
2023-04-01T03:32:15.769Z,0.00
2023-04-01T03:32:48.673Z,0.00
2023-04-01T03:33:19.454Z,0.00
2023-04-01T03:33:52.324Z,0.00
2023-04-01T03:34:23.596Z,0.00
2023-04-01T03:34:56.597Z,0.00
2023-04-01T03:35:27.921Z,0.00
2023-04-01T03:36:00.483Z,0.00
2023-04-01T03:36:31.661Z,0.00
2023-04-01T03:37:04.251Z,0.00
2023-04-01T03:37:35.530Z,0.00
2023-04-01T03:38:08.330Z,0.00
2023-04-01T03:38:39.451Z,0.00
2023-04-01T03:39:12.524Z,0.00
2023-04-01T03:39:44.710Z,0.00
2023-04-01T03:40:17.005Z,0.00
2023-04-01T03:40:47.712Z,0.00
2023-04-01T03:41:20.448Z,0.00
2023-04-01T03:41:51.757Z,0.00
2023-04-01T03:42:25.325Z,0.00
2023-04-01T03:42:55.619Z,0.00
2023-04-01T03:43:28.497Z,0.00
2023-04-01T03:43:59.751Z,0.00
2023-04-01T03:44:32.421Z,0.00
2023-04-01T03:45:04.776Z,0.00
2023-04-01T03:45:36.816Z,0.00
2023-04-01T03:46:07.676Z,0.00
2023-04-01T03:46:40.493Z,0.00
2023-04-01T03:47:11.790Z,0.00
2023-04-01T03:47:44.504Z,0.00
2023-04-01T03:48:15.698Z,0.00
2023-04-01T03:48:48.480Z,0.00
2023-04-01T03:49:19.645Z,0.00
2023-04-01T03:49:52.234Z,0.00
2023-04-01T03:50:23.928Z,0.00
2023-04-01T03:50:56.548Z,0.00
2023-04-01T03:51:27.665Z,0.00
2023-04-01T03:52:00.302Z,0.00
2023-04-01T03:52:31.720Z,0.00
2023-04-01T03:53:04.503Z,0.00
2023-04-01T03:53:35.706Z,0.00
2023-04-01T03:54:08.315Z,0.00
2023-04-01T03:54:39.565Z,0.00
2023-04-01T03:55:12.776Z,0.00
2023-04-01T03:55:43.514Z,0.00
2023-04-01T03:56:16.516Z,0.00
2023-04-01T03:56:47.745Z,0.00
2023-04-01T03:57:20.264Z,0.00
2023-04-01T03:57:51.554Z,0.00
2023-04-01T03:58:24.449Z,0.00
2023-04-01T03:58:55.775Z,0.00
2023-04-01T03:59:28.251Z,0.00
2023-04-01T03:59:59.659Z,0.00
2023-04-01T04:00:34.697Z,0.00
2023-04-01T04:01:03.485Z,0.00
2023-04-01T04:01:36.401Z,0.00
2023-04-01T04:02:07.602Z,0.00
2023-04-01T04:02:40.671Z,0.00
2023-04-01T04:03:11.524Z,0.00
2023-04-01T04:03:44.467Z,0.00
2023-04-01T04:04:15.720Z,0.00
2023-04-01T04:04:48.357Z,0.00
2023-04-01T04:05:19.875Z,0.00
2023-04-01T04:05:52.560Z,0.00
2023-04-01T04:06:23.574Z,0.00
2023-04-01T04:06:57.364Z,0.00
2023-04-01T04:07:27.574Z,0.00
2023-04-01T04:08:00.668Z,0.00
2023-04-01T04:08:31.564Z,0.00
2023-04-01T04:08:47.799Z,0.00
2023-04-01T04:09:19.539Z,0.00
2023-04-01T04:09:51.536Z,0.00
2023-04-01T04:10:24.019Z,0.00
2023-04-01T04:10:55.645Z,0.00
2023-04-01T04:11:28.410Z,0.00
2023-04-01T04:11:59.640Z,0.00
2023-04-01T04:12:33.598Z,0.00
2023-04-01T04:13:03.522Z,0.00
2023-04-01T04:13:36.243Z,0.00
2023-04-01T04:14:07.601Z,0.00
2023-04-01T04:14:40.543Z,0.00
2023-04-01T04:15:12.396Z,0.00
2023-04-01T04:15:44.781Z,0.00
2023-04-01T04:16:15.759Z,0.00
2023-04-01T04:16:48.362Z,0.00
2023-04-01T04:17:19.537Z,0.00
2023-04-01T04:17:52.467Z,0.00
2023-04-01T04:18:23.673Z,0.00
2023-04-01T04:18:56.332Z,0.00
2023-04-01T04:19:27.796Z,0.00
2023-04-01T04:20:00.802Z,0.00
2023-04-01T04:20:31.616Z,0.00
2023-04-01T04:21:04.263Z,0.00
2023-04-01T04:21:35.590Z,0.00
2023-04-01T04:22:08.593Z,0.00
2023-04-01T04:22:39.570Z,0.00
2023-04-01T04:23:12.358Z,0.00
2023-04-01T04:23:43.652Z,0.00
2023-04-01T04:24:16.375Z,0.00
2023-04-01T04:24:47.661Z,0.00
2023-04-01T04:25:20.725Z,0.00
2023-04-01T04:25:51.595Z,0.00
2023-04-01T04:26:25.425Z,0.00
2023-04-01T04:26:55.615Z,0.00
2023-04-01T04:27:28.432Z,0.00
2023-04-01T04:27:59.579Z,0.00
2023-04-01T04:28:32.468Z,0.00
2023-04-01T04:29:03.594Z,0.00
2023-04-01T04:29:37.088Z,0.00
2023-04-01T04:30:08.626Z,0.00
2023-04-01T04:30:40.492Z,0.00
2023-04-01T04:31:11.724Z,0.00
2023-04-01T04:31:44.471Z,0.00
2023-04-01T04:32:15.630Z,0.00
2023-04-01T04:32:48.567Z,0.00
2023-04-01T04:33:19.579Z,0.00
2023-04-01T04:33:52.410Z,0.00
2023-04-01T04:34:23.683Z,0.00
2023-04-01T04:34:56.563Z,0.00
2023-04-01T04:35:27.933Z,0.00
2023-04-01T04:36:00.469Z,0.00
2023-04-01T04:36:31.744Z,0.00
2023-04-01T04:37:04.513Z,0.00
2023-04-01T04:37:35.494Z,0.00
2023-04-01T04:38:08.581Z,0.00
2023-04-01T04:38:39.685Z,0.00
2023-04-01T04:39:12.294Z,0.00
2023-04-01T04:39:43.635Z,0.00
2023-04-01T04:40:16.727Z,0.00
2023-04-01T04:40:47.569Z,0.00
2023-04-01T04:41:20.515Z,0.00
2023-04-01T04:41:51.595Z,0.00
2023-04-01T04:42:24.549Z,0.00
2023-04-01T04:42:55.471Z,0.00
2023-04-01T04:43:28.356Z,0.00
2023-04-01T04:43:59.716Z,0.00
2023-04-01T04:44:33.386Z,0.00
2023-04-01T04:45:04.949Z,0.00
2023-04-01T04:45:36.802Z,0.00
2023-04-01T04:46:07.753Z,0.00
2023-04-01T04:46:40.429Z,0.00
2023-04-01T04:47:11.828Z,0.00
2023-04-01T04:47:44.649Z,0.00
2023-04-01T04:48:15.534Z,0.00
2023-04-01T04:48:48.327Z,0.00
2023-04-01T04:49:19.638Z,0.00
2023-04-01T04:49:52.554Z,0.00
2023-04-01T04:50:23.833Z,0.00
2023-04-01T04:50:56.626Z,0.00
2023-04-01T04:51:27.661Z,0.00
2023-04-01T04:52:00.360Z,0.00
2023-04-01T04:52:31.648Z,0.00
2023-04-01T04:53:04.721Z,0.00
2023-04-01T04:53:35.935Z,0.00
2023-04-01T04:54:08.477Z,0.00
2023-04-01T04:54:39.554Z,0.00
2023-04-01T04:55:12.638Z,0.00
2023-04-01T04:55:43.572Z,0.00
2023-04-01T04:56:16.407Z,0.00
2023-04-01T04:56:47.747Z,0.00
2023-04-01T04:57:20.696Z,0.00
2023-04-01T04:57:51.629Z,0.00
2023-04-01T04:58:24.512Z,0.00
2023-04-01T04:58:55.752Z,0.00
2023-04-01T04:59:28.312Z,0.00
2023-04-01T04:59:59.550Z,0.00
2023-04-01T05:00:33.569Z,0.00
2023-04-01T05:01:03.974Z,1.18
2023-04-01T05:01:36.671Z,1.18
2023-04-01T05:02:07.940Z,1.18
2023-04-01T05:02:42.832Z,1.18
2023-04-01T05:03:11.860Z,1.18
2023-04-01T05:03:44.623Z,2.45
2023-04-01T05:04:15.974Z,2.45
2023-04-01T05:04:50.329Z,2.45
2023-04-01T05:05:20.129Z,2.45
2023-04-01T05:05:52.800Z,2.45
2023-04-01T05:06:23.840Z,2.45
2023-04-01T05:06:56.465Z,1.18
2023-04-01T05:07:27.859Z,2.45
2023-04-01T05:08:00.855Z,3.63
2023-04-01T05:08:31.983Z,3.63
2023-04-01T05:09:04.480Z,3.63
2023-04-01T05:09:35.913Z,3.63
2023-04-01T05:10:08.840Z,3.63
2023-04-01T05:10:39.820Z,3.63
2023-04-01T05:11:13.776Z,4.89
2023-04-01T05:11:43.838Z,4.89
2023-04-01T05:12:16.672Z,4.89
2023-04-01T05:12:47.664Z,4.89
2023-04-01T05:13:20.421Z,6.08
2023-04-01T05:13:51.952Z,4.89
2023-04-01T05:14:24.653Z,4.89
2023-04-01T05:14:55.866Z,3.63
2023-04-01T05:15:29.845Z,3.63
2023-04-01T05:15:59.963Z,4.89
2023-04-01T05:16:32.686Z,6.08
2023-04-01T05:17:03.934Z,6.08
2023-04-01T05:17:36.925Z,7.34
2023-04-01T05:18:07.843Z,8.52
2023-04-01T05:18:40.541Z,8.52
2023-04-01T05:19:11.938Z,7.34
2023-04-01T05:19:44.492Z,7.34
2023-04-01T05:20:16.163Z,8.52
2023-04-01T05:20:48.879Z,7.34
2023-04-01T05:21:19.772Z,7.34
2023-04-01T05:21:52.716Z,7.34
2023-04-01T05:22:23.844Z,7.34
2023-04-01T05:22:56.984Z,8.52
2023-04-01T05:23:27.763Z,8.52
2023-04-01T05:24:00.881Z,9.79
2023-04-01T05:24:31.983Z,9.79
2023-04-01T05:25:05.689Z,9.79
2023-04-01T05:25:35.877Z,10.97
2023-04-01T05:26:08.729Z,10.97
2023-04-01T05:26:39.752Z,10.97
2023-04-01T05:27:12.711Z,10.97
2023-04-01T05:27:43.833Z,12.23
2023-04-01T05:28:16.834Z,10.97
2023-04-01T05:28:47.879Z,12.23
2023-04-01T05:29:20.593Z,12.23
2023-04-01T05:29:51.808Z,10.97
2023-04-01T05:30:25.694Z,10.97
2023-04-01T05:30:55.994Z,12.23
2023-04-01T05:31:28.750Z,12.23
2023-04-01T05:31:59.958Z,12.23
2023-04-01T05:32:32.765Z,12.23
2023-04-01T05:33:03.961Z,12.23
2023-04-01T05:33:37.260Z,13.42
2023-04-01T05:34:07.730Z,15.86
2023-04-01T05:34:40.622Z,17.13
2023-04-01T05:35:12.174Z,18.31
2023-04-01T05:35:44.551Z,18.31
2023-04-01T05:36:15.872Z,17.13
2023-04-01T05:36:48.841Z,15.86
2023-04-01T05:37:19.944Z,15.86
2023-04-01T05:37:52.744Z,17.13
2023-04-01T05:38:23.959Z,18.31
2023-04-01T05:38:56.982Z,19.57
2023-04-01T05:39:27.924Z,20.76
2023-04-01T05:40:01.008Z,22.02
2023-04-01T05:40:31.964Z,23.20
2023-04-01T05:41:04.912Z,23.20
2023-04-01T05:41:35.804Z,23.20
2023-04-01T05:42:08.653Z,23.20
2023-04-01T05:42:39.940Z,24.47
2023-04-01T05:43:12.546Z,23.20
2023-04-01T05:43:43.876Z,23.20
2023-04-01T05:44:16.762Z,20.76
2023-04-01T05:44:47.965Z,22.02
2023-04-01T05:45:21.531Z,23.20
2023-04-01T05:45:51.935Z,23.20
2023-04-01T05:46:24.788Z,23.20
2023-04-01T05:46:55.826Z,24.47
2023-04-01T05:47:28.785Z,25.65
2023-04-01T05:48:00.592Z,26.91
2023-04-01T05:48:32.673Z,28.10
2023-04-01T05:49:03.718Z,28.10
2023-04-01T05:49:37.048Z,25.65
2023-04-01T05:50:08.114Z,25.65
2023-04-01T05:50:41.618Z,26.91
2023-04-01T05:51:11.897Z,26.91
2023-04-01T05:51:45.032Z,26.91
2023-04-01T05:52:16.022Z,29.36
2023-04-01T05:52:49.818Z,29.36
2023-04-01T05:53:19.989Z,29.36
2023-04-01T05:53:52.803Z,28.10
2023-04-01T05:54:23.937Z,25.65
2023-04-01T05:54:56.863Z,25.65
2023-04-01T05:55:28.492Z,28.10
2023-04-01T05:56:00.932Z,25.65
2023-04-01T05:56:31.729Z,25.65
2023-04-01T05:56:49.014Z,24.47
2023-04-01T05:57:20.059Z,23.20
2023-04-01T05:57:51.895Z,23.20
2023-04-01T05:58:24.040Z,26.91
2023-04-01T05:58:55.920Z,29.36
2023-04-01T05:59:28.725Z,34.25
2023-04-01T05:59:59.876Z,37.88
2023-04-01T06:00:33.907Z,42.78
2023-04-01T06:01:10.078Z,45.22
2023-04-01T06:01:36.550Z,46.49
2023-04-01T06:02:07.748Z,45.22
2023-04-01T06:02:40.794Z,45.22
2023-04-01T06:03:11.894Z,47.67
2023-04-01T06:03:45.799Z,48.93
2023-04-01T06:04:15.982Z,48.93
2023-04-01T06:04:48.477Z,48.93
2023-04-01T06:05:20.270Z,53.83
2023-04-01T06:05:52.709Z,61.17
2023-04-01T06:06:23.834Z,64.80
2023-04-01T06:06:56.630Z,64.80
2023-04-01T06:07:27.896Z,69.69
2023-04-01T06:08:01.568Z,73.40
2023-04-01T06:08:31.958Z,77.03
2023-04-01T06:08:48.069Z,79.48
2023-04-01T06:09:19.812Z,79.48
2023-04-01T06:09:51.852Z,79.48
2023-04-01T06:10:24.207Z,79.48
2023-04-01T06:10:55.823Z,74.59
2023-04-01T06:11:28.653Z,67.25
2023-04-01T06:11:59.880Z,59.91
2023-04-01T06:12:32.822Z,58.72
2023-04-01T06:13:03.771Z,62.35
2023-04-01T06:13:36.798Z,67.25
2023-04-01T06:14:07.869Z,77.03
2023-04-01T06:14:40.574Z,79.48
2023-04-01T06:15:13.677Z,79.48
2023-04-01T06:15:44.751Z,79.48
2023-04-01T06:16:15.885Z,79.48
2023-04-01T06:16:48.789Z,77.03
2023-04-01T06:17:19.925Z,83.19
2023-04-01T06:17:53.105Z,86.82
2023-04-01T06:18:23.766Z,89.27
2023-04-01T06:18:56.942Z,85.64
2023-04-01T06:19:27.944Z,85.64
2023-04-01T06:20:00.903Z,78.30
2023-04-01T06:20:32.002Z,78.30
2023-04-01T06:21:04.738Z,86.82
2023-04-01T06:21:35.841Z,91.71
2023-04-01T06:22:08.708Z,92.98
2023-04-01T06:22:39.910Z,88.08
2023-04-01T06:23:12.899Z,86.82
2023-04-01T06:23:43.993Z,90.53
2023-04-01T06:24:16.797Z,100.32
2023-04-01T06:24:48.001Z,112.55
2023-04-01T06:25:21.184Z,113.73
2023-04-01T06:25:51.914Z,112.55
2023-04-01T06:26:24.684Z,112.55
2023-04-01T06:26:56.052Z,137.02
2023-04-01T06:27:29.034Z,125.97
2023-04-01T06:28:00.209Z,144.36
2023-04-01T06:28:33.123Z,119.89
2023-04-01T06:29:03.772Z,110.10
2023-04-01T06:29:36.890Z,108.84
2023-04-01T06:30:08.888Z,107.66
2023-04-01T06:30:40.634Z,110.10
2023-04-01T06:31:12.283Z,124.78
2023-04-01T06:31:45.080Z,150.43
2023-04-01T06:32:16.371Z,137.02
2023-04-01T06:32:49.218Z,130.86
2023-04-01T06:33:20.249Z,128.41
2023-04-01T06:33:53.103Z,125.97
2023-04-01T06:34:24.130Z,132.12
2023-04-01T06:34:57.067Z,119.89
2023-04-01T06:35:28.235Z,103.95
2023-04-01T06:36:00.655Z,103.95
2023-04-01T06:36:31.985Z,112.55
2023-04-01T06:37:04.823Z,112.55
2023-04-01T06:37:35.802Z,106.39
2023-04-01T06:38:08.583Z,105.21
2023-04-01T06:38:39.861Z,103.95
2023-04-01T06:39:12.724Z,105.21
2023-04-01T06:39:43.622Z,100.32
2023-04-01T06:40:16.897Z,96.61
2023-04-01T06:40:47.865Z,110.10
2023-04-01T06:41:22.594Z,95.42
2023-04-01T06:41:51.830Z,97.87
2023-04-01T06:42:24.807Z,102.76
2023-04-01T06:42:55.902Z,102.76
2023-04-01T06:43:28.588Z,102.76
2023-04-01T06:43:59.934Z,102.76
2023-04-01T06:44:33.208Z,135.75
2023-04-01T06:45:05.411Z,125.97
2023-04-01T06:45:37.358Z,121.07
2023-04-01T06:46:08.273Z,123.52
2023-04-01T06:46:41.147Z,128.41
2023-04-01T06:47:12.164Z,129.68
2023-04-01T06:47:45.749Z,132.12
2023-04-01T06:48:16.240Z,134.57
2023-04-01T06:48:48.979Z,134.57
2023-04-01T06:49:20.166Z,129.68
2023-04-01T06:49:53.900Z,125.97
2023-04-01T06:50:24.435Z,116.18
2023-04-01T06:50:56.582Z,111.29
2023-04-01T06:51:27.975Z,108.84
2023-04-01T06:52:00.795Z,106.39
2023-04-01T06:52:31.758Z,103.95
2023-04-01T06:52:48.006Z,102.76
2023-04-01T06:53:19.730Z,100.32
2023-04-01T06:53:51.831Z,106.39
2023-04-01T06:54:24.764Z,111.29
2023-04-01T06:54:56.025Z,106.39
2023-04-01T06:55:28.952Z,101.50
2023-04-01T06:55:59.893Z,105.21
2023-04-01T06:56:32.904Z,111.29
2023-04-01T06:57:03.818Z,116.18
2023-04-01T06:57:36.696Z,116.18
2023-04-01T06:58:07.990Z,116.18
2023-04-01T06:58:41.668Z,117.44
2023-04-01T06:59:12.010Z,122.34
2023-04-01T06:59:45.349Z,124.78
2023-04-01T07:00:17.381Z,129.68
2023-04-01T07:00:49.224Z,132.12
2023-04-01T07:01:20.289Z,135.75
2023-04-01T07:01:53.098Z,138.20
2023-04-01T07:02:24.182Z,134.57
2023-04-01T07:02:56.982Z,132.12
2023-04-01T07:03:28.225Z,132.12
2023-04-01T07:04:01.261Z,132.12
2023-04-01T07:04:32.356Z,133.31
2023-04-01T07:05:05.045Z,130.86
2023-04-01T07:05:36.246Z,125.97
2023-04-01T07:06:09.908Z,125.97
2023-04-01T07:06:40.073Z,127.23
2023-04-01T07:07:13.215Z,129.68
2023-04-01T07:07:44.343Z,125.97
2023-04-01T07:08:17.026Z,122.34
2023-04-01T07:08:47.888Z,118.63
2023-04-01T07:09:20.668Z,117.44
2023-04-01T07:09:52.122Z,119.89
2023-04-01T07:10:25.547Z,123.52
2023-04-01T07:10:56.215Z,125.97
2023-04-01T07:11:29.266Z,127.23
2023-04-01T07:12:00.142Z,127.23
2023-04-01T07:12:33.467Z,124.78
2023-04-01T07:13:04.269Z,123.52
2023-04-01T07:13:37.323Z,130.86
2023-04-01T07:14:08.317Z,135.75
2023-04-01T07:14:41.893Z,135.75
2023-04-01T07:15:13.466Z,133.31
2023-04-01T07:15:45.235Z,133.31
2023-04-01T07:16:16.137Z,133.31
2023-04-01T07:16:49.055Z,128.41
2023-04-01T07:17:19.840Z,118.63
2023-04-01T07:17:52.918Z,112.55
2023-04-01T07:18:23.927Z,113.73
2023-04-01T07:18:57.403Z,123.52
2023-04-01T07:19:28.269Z,130.86
2023-04-01T07:20:01.810Z,138.20
2023-04-01T07:20:32.574Z,137.02
2023-04-01T07:21:05.153Z,129.68
2023-04-01T07:21:36.416Z,119.89
2023-04-01T07:22:08.896Z,111.29
2023-04-01T07:22:40.108Z,102.76
2023-04-01T07:23:12.760Z,96.61
2023-04-01T07:23:44.096Z,92.98
2023-04-01T07:24:17.842Z,90.53
2023-04-01T07:24:48.009Z,100.32
2023-04-01T07:25:21.318Z,115.00
2023-04-01T07:25:52.387Z,127.23
2023-04-01T07:26:25.485Z,129.68
2023-04-01T07:26:56.314Z,134.57
2023-04-01T07:27:29.196Z,145.54
2023-04-01T07:28:00.413Z,160.22
2023-04-01T07:28:33.256Z,178.61
2023-04-01T07:29:04.200Z,200.63
2023-04-01T07:29:36.936Z,178.61
2023-04-01T07:30:09.244Z,154.14
2023-04-01T07:30:41.179Z,139.46
2023-04-01T07:31:12.293Z,138.20
2023-04-01T07:31:45.153Z,146.80
2023-04-01T07:32:16.141Z,146.80
2023-04-01T07:32:49.546Z,151.70
2023-04-01T07:33:20.249Z,152.88
2023-04-01T07:33:52.833Z,163.93
2023-04-01T07:34:24.202Z,167.56
2023-04-01T07:34:57.006Z,178.61
2023-04-01T07:35:28.486Z,187.13
2023-04-01T07:36:00.903Z,198.18
2023-04-01T07:36:32.289Z,193.29
2023-04-01T07:37:05.138Z,204.26
2023-04-01T07:37:36.203Z,203.08
2023-04-01T07:38:09.129Z,203.08
2023-04-01T07:38:40.293Z,221.39
2023-04-01T07:39:13.231Z,182.24
2023-04-01T07:39:44.278Z,172.45
2023-04-01T07:40:21.258Z,160.22
2023-04-01T07:40:48.314Z,159.04